Westphalia, Texas
Current Conditions -  °F | °C
As of 5:55 PM on Sunday 21 Dec 2014 (Local Time) from KTPL Reporting Station
Overcast Overcast  
Wind Chill: 54°   Ceiling: 1500
Heat Index: 54°   Visibility: 10mi
Dew Point: 45°   Wind: 13mph
Humidity: 72%   Direction: 160°SSE
Pressure: 29.86"   Gusts: NA
Location:  31.1912°N, 97.0719°W
Report Text: KTPL 212355Z AUTO 16011KT 10SM OVC015 12/07 A2986 RMK AO1 10120 20120 57014
Loading
Personal Weather Stations






























Interactive Weather Map New forecast layout! Learn more

10-Day Weather Forecast

Advertisements
Track Severe Weather on mobile